Time;durP1;ratioP1;P1;durP2;ratioP2;P2;SDS_P1;SDS_P2;PMS_P1;PMS_P2;Temp;Humidity;BMP_temperature;BMP_pressure;BME280_temperature;BME280_humidity;BME280_pressure;Samples;Min_cycle;Max_cycle;Signal;HPM_P1;HPM_P2
2022/10/19 00:01:56;;;;;;;1.15;0.70;;;;;;;30.01;28.75;98869.34;5027296;28;20108;-81
2022/10/19 00:04:22;;;;;;;1.08;0.98;;;;;;;29.49;29.70;98869.00;5023488;28;20475;-81
2022/10/19 00:06:48;;;;;;;1.48;1.38;;;;;;;29.46;29.67;98869.88;5024393;28;20112;-81
2022/10/19 00:09:17;;;;;;;1.50;1.40;;;;;;;29.33;29.92;98869.91;5022218;28;20091;-81
2022/10/19 00:11:46;;;;;;;2.85;1.52;;;;;;;28.90;30.83;98866.72;5031366;28;20033;-81
2022/10/19 00:14:15;;;;;;;1.65;1.55;;;;;;;29.17;29.86;98872.78;5030570;28;20033;-81
2022/10/19 00:16:43;;;;;;;2.40;1.75;;;;;;;28.89;30.52;98870.78;5023520;28;20112;-81
2022/10/19 00:19:14;;;;;;;1.83;1.60;;;;;;;28.69;31.16;98870.94;5019386;28;20050;-80
2022/10/19 00:21:40;;;;;;;3.03;2.50;;;;;;;28.45;30.97;98876.00;5011884;28;20557;-80
2022/10/19 00:24:08;;;;;;;4.88;2.22;;;;;;;28.81;30.39;98866.56;5013298;28;20038;-80
2022/10/19 00:26:34;;;;;;;2.25;2.05;;;;;;;28.71;30.47;98862.81;5019547;28;20034;-80
2022/10/19 00:29:00;;;;;;;1.98;1.77;;;;;;;28.37;31.16;98873.84;5027023;28;20092;-80
2022/10/19 00:31:27;;;;;;;2.30;2.10;;;;;;;28.90;30.02;98866.72;5019349;28;20033;-81
2022/10/19 00:33:56;;;;;;;2.35;1.52;;;;;;;28.75;30.67;98872.00;5028412;28;20049;-81
2022/10/19 00:36:25;;;;;;;2.25;1.52;;;;;;;28.64;30.61;98869.47;5030939;28;20105;-81
2022/10/19 00:38:52;;;;;;;2.63;2.00;;;;;;;28.93;30.06;98877.13;5025501;28;20048;-81
2022/10/19 00:41:19;;;;;;;1.85;1.52;;;;;;;29.45;29.06;98882.47;5031673;28;20038;-81
2022/10/19 00:43:59;;;;;;;1.40;1.30;;;;;;;29.84;28.51;98876.38;5032220;28;20117;-81
2022/10/19 00:46:28;;;;;;;1.58;1.48;;;;;;;30.18;27.94;98876.41;5031462;28;20033;-81
2022/10/19 00:49:03;;;;;;;2.10;1.90;;;;;;;29.86;28.19;98877.50;5031188;28;20040;-80
2022/10/19 00:51:32;;;;;;;1.92;1.80;;;;;;;29.34;28.93;98869.44;5031257;28;20034;-81
2022/10/19 00:54:00;;;;;;;1.45;1.35;;;;;;;29.44;28.75;98873.19;5035990;28;20386;-81
2022/10/19 00:56:26;;;;;;;1.88;1.42;;;;;;;29.91;28.15;98874.09;5031296;28;20033;-81
2022/10/19 00:58:52;;;;;;;1.40;1.30;;;;;;;30.18;27.09;98876.41;5033787;28;20029;-81
2022/10/19 01:01:22;;;;;;;1.65;1.55;;;;;;;30.50;27.07;98867.63;5035268;28;20034;-81
2022/10/19 01:03:48;;;;;;;2.30;2.05;;;;;;;30.96;26.25;98862.34;5027575;28;20026;-81
2022/10/19 01:06:17;;;;;;;2.10;1.90;;;;;;;31.17;25.96;98853.00;5033234;28;20068;-81
2022/10/19 01:08:44;;;;;;;1.30;1.20;;;;;;;31.15;25.89;98847.00;5032481;28;20447;-81
2022/10/19 01:11:10;;;;;;;1.83;1.20;;;;;;;30.85;26.04;98850.56;5035124;28;20038;-81
2022/10/19 01:13:47;;;;;;;1.42;1.33;;;;;;;30.82;26.52;98846.63;5033685;28;20037;-81
2022/10/19 01:16:37;;;;;;;1.60;1.50;;;;;;;30.86;26.35;98835.13;5025011;28;20038;-81
2022/10/19 01:19:52;;;;;;;4.15;1.38;;;;;;;30.68;26.28;98847.94;5033027;28;20067;-81
2022/10/19 01:22:36;;;;;;;2.33;1.20;;;;;;;30.63;26.79;98845.69;5022087;28;20029;-81
2022/10/19 01:25:23;;;;;;;3.40;1.20;;;;;;;30.61;26.44;98848.19;5027962;28;20487;-81
2022/10/19 01:28:26;;;;;;;1.20;1.10;;;;;;;30.43;27.08;98842.41;5032146;28;20030;-81
2022/10/19 01:31:14;;;;;;;1.30;1.20;;;;;;;30.71;26.43;98830.00;5029687;28;20068;-81
2022/10/19 01:33:52;;;;;;;1.33;1.10;;;;;;;30.77;26.44;98831.00;5025164;28;20553;-81
2022/10/19 01:36:34;;;;;;;1.40;1.30;;;;;;;30.63;26.39;98837.19;5053736;28;20075;-81
2022/10/19 01:39:24;;;;;;;2.28;1.75;;;;;;;30.67;26.87;98840.69;5031967;28;20080;-81
2022/10/19 01:42:14;;;;;;;1.03;1.00;;;;;;;30.92;26.31;98821.97;5027265;28;20057;-80
2022/10/19 01:44:40;;;;;;;1.45;1.25;;;;;;;31.28;25.62;98822.16;5032284;28;20033;-81
2022/10/19 01:47:14;;;;;;;1.50;1.20;;;;;;;31.54;25.51;98817.09;5035448;28;20553;-81
2022/10/19 01:49:45;;;;;;;0.95;0.90;;;;;;;31.78;25.09;98816.09;5032687;28;20399;-81
2022/10/19 01:52:16;;;;;;;1.75;1.23;;;;;;;31.90;24.76;98812.31;5031860;28;20026;-81
2022/10/19 01:54:47;;;;;;;1.40;0.95;;;;;;;31.91;24.71;98810.25;5033868;28;20446;-81
2022/10/19 01:57:18;;;;;;;1.42;1.33;;;;;;;31.81;24.85;98811.53;5032431;28;20044;-81
2022/10/19 01:59:47;;;;;;;1.50;1.40;;;;;;;31.76;25.18;98803.63;5028651;28;20049;-81
2022/10/19 02:02:15;;;;;;;1.15;1.05;;;;;;;31.83;24.82;98800.47;5033913;28;20079;-81
2022/10/19 02:04:42;;;;;;;1.10;1.00;;;;;;;31.73;25.19;98805.34;5032956;28;20061;-81
2022/10/19 02:07:10;;;;;;;4.50;1.90;;;;;;;31.44;25.17;98804.91;5033771;28;20104;-81
2022/10/19 02:09:36;;;;;;;1.20;1.10;;;;;;;31.29;25.40;98804.69;5026282;28;20376;-81
2022/10/19 02:12:07;;;;;;;1.38;1.25;;;;;;;30.97;25.75;98818.56;5027829;28;20487;-81
2022/10/19 02:14:39;;;;;;;1.83;0.90;;;;;;;30.44;26.99;98826.94;5029737;28;20387;-81
2022/10/19 02:17:09;;;;;;;1.45;1.10;;;;;;;29.96;27.68;98827.44;5022986;28;20034;-81
2022/10/19 02:19:35;;;;;;;1.45;1.35;;;;;;;29.61;27.96;98820.88;5032318;28;20053;-81
2022/10/19 02:22:02;;;;;;;1.65;1.55;;;;;;;29.77;27.64;98819.97;5024574;28;20030;-81
2022/10/19 02:24:28;;;;;;;1.60;1.50;;;;;;;30.08;27.47;98815.28;5027729;28;20402;-81
2022/10/19 02:26:55;;;;;;;1.55;1.25;;;;;;;30.21;27.17;98818.84;5027078;28;20036;-81
2022/10/19 02:29:21;;;;;;;2.70;1.52;;;;;;;30.31;27.03;98811.22;5023933;28;20034;-81
2022/10/19 02:31:48;;;;;;;2.17;1.58;;;;;;;30.39;27.16;98821.06;5022147;28;20049;-81
2022/10/19 02:34:14;;;;;;;1.27;1.17;;;;;;;30.50;26.59;98818.66;5025928;28;20540;-81
2022/10/19 02:36:40;;;;;;;1.27;1.17;;;;;;;30.69;26.17;98806.22;5026456;28;20079;-81
2022/10/19 02:39:07;;;;;;;1.35;1.25;;;;;;;30.63;26.32;98811.69;5030141;28;20087;-81
2022/10/19 02:41:51;;;;;;;1.30;1.20;;;;;;;30.81;26.16;98804.56;5027612;28;20037;-81
2022/10/19 02:44:26;;;;;;;1.35;1.25;;;;;;;30.88;26.11;98801.44;5033598;28;20041;-81
2022/10/19 02:47:17;;;;;;;1.27;1.17;;;;;;;30.75;26.35;98796.66;5031968;28;20031;-81
2022/10/19 02:49:43;;;;;;;1.25;1.15;;;;;;;30.84;26.02;98797.94;5029891;28;20041;-81
2022/10/19 02:52:11;;;;;;;1.42;1.13;;;;;;;30.81;26.19;98790.38;5028436;28;20025;-80
2022/10/19 02:54:39;;;;;;;1.20;1.10;;;;;;;31.01;26.34;98793.66;5031626;28;20096;-80
2022/10/19 02:57:16;;;;;;;1.23;1.13;;;;;;;31.10;25.94;98791.66;5031400;28;20718;-81
2022/10/19 02:59:42;;;;;;;1.50;1.40;;;;;;;30.40;26.52;98795.13;5031350;28;20056;-80
2022/10/19 03:02:08;;;;;;;1.20;1.10;;;;;;;30.00;27.16;98782.78;5033398;28;20498;-80
2022/10/19 03:04:34;;;;;;;1.27;1.17;;;;;;;29.85;27.74;98781.69;5024711;28;20209;-80
2022/10/19 03:07:01;;;;;;;1.50;1.40;;;;;;;29.62;28.12;98787.69;5018528;28;20030;-81
2022/10/19 03:09:27;;;;;;;1.75;1.60;;;;;;;30.06;27.57;98795.09;5016045;28;20121;-80
2022/10/19 03:11:55;;;;;;;2.85;1.38;;;;;;;30.17;27.46;98795.53;5030163;28;20040;-81
2022/10/19 03:14:21;;;;;;;1.65;1.30;;;;;;;30.48;26.87;98795.66;5031453;28;20037;-81
2022/10/19 03:16:47;;;;;;;1.52;1.42;;;;;;;30.39;26.74;98787.88;5024356;28;20060;-81
2022/10/19 03:19:13;;;;;;;1.80;1.45;;;;;;;30.38;27.14;98791.16;5026544;28;20084;-81
2022/10/19 03:21:39;;;;;;;1.80;1.70;;;;;;;30.30;27.19;98793.44;5022996;28;20037;-80
2022/10/19 03:24:05;;;;;;;2.13;2.00;;;;;;;30.21;27.04;98796.19;5029520;28;20067;-80
2022/10/19 03:26:32;;;;;;;2.25;2.05;;;;;;;29.89;27.67;98788.81;5032191;28;20501;-80
2022/10/19 03:28:58;;;;;;;3.00;2.72;;;;;;;29.76;27.99;98792.91;5032237;28;20535;-81
2022/10/19 03:31:25;;;;;;;2.17;2.03;;;;;;;29.78;28.02;98793.28;5031341;28;20037;-80
2022/10/19 03:33:52;;;;;;;2.88;2.67;;;;;;;29.57;28.38;98786.22;5029857;28;20021;-81
2022/10/19 03:36:30;;;;;;;2.75;2.55;;;;;;;29.48;28.75;98786.13;5030520;28;20033;-81
2022/10/19 03:38:59;;;;;;;2.97;2.67;;;;;;;29.13;29.24;98788.03;5031575;28;20037;-81
2022/10/19 03:41:30;;;;;;;3.60;3.25;;;;;;;29.36;28.79;98799.03;5026777;28;20037;-81
2022/10/19 03:43:56;;;;;;;3.13;2.83;;;;;;;29.65;28.17;98783.97;5032623;28;20087;-81
2022/10/19 03:46:23;;;;;;;5.45;4.93;;;;;;;29.40;28.26;98790.44;5031310;28;20037;-80
2022/10/19 03:48:49;;;;;;;4.30;3.90;;;;;;;28.77;29.25;98781.91;5029310;28;20033;-81
2022/10/19 03:51:29;;;;;;;4.88;4.25;;;;;;;29.10;29.21;98780.44;5027705;28;20040;-81
2022/10/19 03:54:03;;;;;;;3.92;3.63;;;;;;;28.78;29.79;98780.63;5031700;28;20033;-81
2022/10/19 03:56:31;;;;;;;5.05;4.60;;;;;;;29.16;29.07;98778.66;5028091;28;20025;-81
2022/10/19 03:58:59;;;;;;;5.65;4.57;;;;;;;29.21;28.67;98775.28;5026324;28;20032;-81
2022/10/19 04:01:31;;;;;;;4.82;4.32;;;;;;;29.42;28.39;98774.59;5024150;28;20029;-81
2022/10/19 04:04:00;;;;;;;7.88;4.85;;;;;;;28.81;29.69;98771.28;5021574;28;20034;-81
2022/10/19 04:06:29;;;;;;;6.72;5.88;;;;;;;28.15;30.35;98765.50;5024643;28;20541;-81
2022/10/19 04:08:56;;;;;;;6.15;5.32;;;;;;;28.19;30.22;98769.84;5024677;28;20132;-81
2022/10/19 04:11:25;;;;;;;4.75;4.35;;;;;;;28.73;29.76;98762.19;5021362;28;20410;-82
2022/10/19 04:13:53;;;;;;;5.60;5.00;;;;;;;29.05;29.11;98766.91;5024223;28;20562;-81
2022/10/19 04:16:20;;;;;;;5.75;4.68;;;;;;;29.26;28.47;98766.25;5022384;28;20552;-81
2022/10/19 04:18:46;;;;;;;8.52;3.80;;;;;;;28.93;29.17;98764.03;5021013;28;20058;-81
2022/10/19 04:21:25;;;;;;;6.03;5.38;;;;;;;29.22;28.79;98767.59;5024068;28;20038;-81
2022/10/19 04:23:56;;;;;;;5.90;5.30;;;;;;;28.79;29.28;98758.81;5027514;28;20500;-82
2022/10/19 04:26:22;;;;;;;5.53;4.80;;;;;;;28.91;29.04;98758.84;5026064;28;20512;-82
2022/10/19 04:28:48;;;;;;;5.97;5.35;;;;;;;29.16;28.72;98758.84;5023867;28;20052;-82
2022/10/19 04:31:14;;;;;;;6.18;5.25;;;;;;;28.72;29.72;98762.66;5024090;28;20029;-82
2022/10/19 04:33:41;;;;;;;9.68;8.23;;;;;;;28.19;29.98;98752.88;5024083;28;20104;-81
2022/10/19 04:36:11;;;;;;;6.13;5.47;;;;;;;27.90;31.15;98764.13;5023102;28;20092;-82
2022/10/19 04:38:37;;;;;;;;;;;;;;;28.32;30.19;98764.22;5027657;28;21332;-81
2022/10/19 04:41:10;;;;;;;6.47;5.40;;;;;;;28.04;30.96;98760.16;5025010;28;19916;-82
2022/10/19 04:43:37;;;;;;;7.68;6.68;;;;;;;27.66;31.27;98765.56;5026724;28;20825;-81
2022/10/19 04:46:12;;;;;;;7.28;6.00;;;;;;;28.24;30.36;98768.50;5031519;28;20038;-81
2022/10/19 04:48:40;;;;;;;5.75;5.18;;;;;;;27.23;32.58;98762.19;5031949;28;20111;-81
2022/10/19 04:51:07;;;;;;;7.20;6.03;;;;;;;27.73;31.39;98771.03;5035006;28;20342;-81
2022/10/19 04:53:34;;;;;;;13.13;8.63;;;;;;;26.78;33.39;98761.22;5035849;28;20027;-81
2022/10/19 04:56:03;;;;;;;8.98;6.68;;;;;;;27.18;31.90;98760.69;5035695;28;20075;-81
2022/10/19 04:58:29;;;;;;;9.63;6.72;;;;;;;28.10;30.23;98764.00;5035550;28;20528;-81
2022/10/19 05:00:55;;;;;;;9.25;7.53;;;;;;;27.65;30.98;98751.91;5035458;28;20038;-80
2022/10/19 05:03:22;;;;;;;9.35;7.47;;;;;;;28.00;30.42;98751.00;5036484;28;20033;-81
2022/10/19 05:05:48;;;;;;;9.00;7.00;;;;;;;27.88;30.82;98766.59;5032437;28;20513;-81
2022/10/19 05:08:14;;;;;;;8.57;7.40;;;;;;;28.23;30.29;98752.78;5035794;28;20029;-81
2022/10/19 05:10:40;;;;;;;9.00;7.55;;;;;;;28.19;30.31;98754.91;5035900;28;20037;-81
2022/10/19 05:13:06;;;;;;;7.68;6.38;;;;;;;28.16;30.57;98764.28;5035981;28;20037;-81
2022/10/19 05:15:33;;;;;;;11.57;9.82;;;;;;;28.13;29.80;98762.31;5035969;28;20041;-81
2022/10/19 05:18:00;;;;;;;9.40;7.85;;;;;;;27.15;31.89;98770.03;5035922;28;20050;-81
2022/10/19 05:20:26;;;;;;;8.75;6.80;;;;;;;27.04;31.94;98755.38;5036075;28;20030;-81
2022/10/19 05:22:52;;;;;;;9.43;7.25;;;;;;;27.62;30.83;98759.22;5032295;28;20033;-81
2022/10/19 05:25:18;;;;;;;9.77;6.80;;;;;;;28.08;29.95;98765.72;5035826;28;20040;-81
2022/10/19 05:27:49;;;;;;;12.00;8.50;;;;;;;27.84;30.36;98765.88;5036064;28;20100;-81
2022/10/19 05:30:15;;;;;;;10.02;7.05;;;;;;;26.43;33.11;98769.19;5035128;28;20217;-81
2022/10/19 05:32:41;;;;;;;8.60;5.95;;;;;;;27.58;30.99;98761.34;5035811;28;20483;-81
2022/10/19 05:35:07;;;;;;;7.75;6.13;;;;;;;27.36;30.96;98763.88;5031760;28;20037;-81
2022/10/19 05:37:33;;;;;;;5.80;5.10;;;;;;;26.87;32.29;98765.03;5023726;28;20360;-81
2022/10/19 05:39:59;;;;;;;7.07;6.38;;;;;;;26.88;32.02;98760.19;5037253;28;20034;-80
2022/10/19 05:42:26;;;;;;;6.20;5.25;;;;;;;27.20;31.63;98757.41;5035712;28;20029;-81
2022/10/19 05:44:52;;;;;;;7.60;6.00;;;;;;;27.18;31.10;98760.69;5035672;28;20566;-81
2022/10/19 05:47:18;;;;;;;8.70;6.10;;;;;;;27.08;31.61;98760.94;5035546;28;20091;-81
2022/10/19 05:49:44;;;;;;;8.60;7.07;;;;;;;26.45;31.89;98763.09;5035266;28;20049;-80
2022/10/19 05:52:10;;;;;;;7.18;6.32;;;;;;;26.21;33.23;98770.03;5035566;28;20061;-81
2022/10/19 05:54:37;;;;;;;8.23;7.40;;;;;;;27.14;30.77;98764.81;5035690;28;20036;-81
2022/10/19 05:57:03;;;;;;;7.47;6.07;;;;;;;27.09;31.33;98766.16;5030607;28;20394;-81
2022/10/19 05:59:29;;;;;;;8.85;7.10;;;;;;;27.18;30.46;98774.78;5035770;28;20065;-81
2022/10/19 06:01:55;;;;;;;8.77;6.18;;;;;;;27.46;30.89;98778.97;5035229;28;20029;-81
2022/10/19 06:04:21;;;;;;;6.10;5.50;;;;;;;27.59;30.32;98777.03;5035224;28;20538;-81
2022/10/19 06:06:47;;;;;;;8.27;6.10;;;;;;;27.38;30.97;98786.00;5035432;28;20031;-81
2022/10/19 06:09:14;;;;;;;10.02;8.05;;;;;;;26.95;31.33;98791.84;5035092;28;20037;-81
2022/10/19 06:11:41;;;;;;;8.32;6.00;;;;;;;25.87;34.09;98792.75;5035229;28;20025;-81
2022/10/19 06:14:12;;;;;;;9.35;7.18;;;;;;;26.03;32.57;98785.22;5031482;28;20037;-81
2022/10/19 06:16:38;;;;;;;11.18;7.80;;;;;;;25.45;33.24;98801.91;5035091;28;20049;-81
2022/10/19 06:19:05;;;;;;;11.55;7.38;;;;;;;25.45;33.14;98815.97;5034472;28;20045;-81
2022/10/19 06:21:32;;;;;;;9.50;6.30;;;;;;;25.94;33.18;98823.56;5035072;28;20107;-81
2022/10/19 06:24:04;;;;;;;8.02;6.47;;;;;;;26.70;31.53;98812.06;5034512;28;20037;-81
2022/10/19 06:26:32;;;;;;;8.23;6.50;;;;;;;25.35;34.19;98821.31;5034896;28;20052;-81
2022/10/19 06:29:00;;;;;;;12.15;6.70;;;;;;;25.59;34.04;98815.75;5034404;28;20029;-81
2022/10/19 06:31:36;;;;;;;7.95;6.97;;;;;;;25.89;32.42;98819.25;5031453;28;20434;-81
2022/10/19 06:34:02;;;;;;;7.47;6.13;;;;;;;25.45;33.98;98815.97;5030705;28;20026;-81
2022/10/19 06:36:30;;;;;;;6.47;5.47;;;;;;;26.34;30.89;98813.22;5032971;28;20037;-81
2022/10/19 06:38:58;;;;;;;6.97;5.35;;;;;;;26.17;31.11;98822.78;5034413;28;20025;-80
2022/10/19 06:41:24;;;;;;;5.78;5.03;;;;;;;25.84;31.41;98828.16;5034548;28;20041;-81
2022/10/19 06:43:52;;;;;;;7.35;5.53;;;;;;;26.69;29.92;98818.94;5034671;28;20039;-81
2022/10/19 06:46:21;;;;;;;7.25;5.25;;;;;;;26.73;29.91;98814.00;5034382;28;20030;-81
2022/10/19 06:48:52;;;;;;;5.55;4.30;;;;;;;27.02;29.13;98825.50;5032558;28;20060;-81
2022/10/19 06:51:19;;;;;;;7.80;5.25;;;;;;;26.87;29.48;98817.78;5034519;28;20022;-80
2022/10/19 06:53:45;;;;;;;4.93;4.22;;;;;;;27.29;29.25;98826.06;5017431;28;20054;-81
2022/10/19 06:56:11;;;;;;;7.43;5.35;;;;;;;27.78;28.69;98828.94;5014660;28;20121;-81
2022/10/19 06:58:38;;;;;;;7.75;5.80;;;;;;;27.72;29.52;98822.25;5014890;28;20021;-80
2022/10/19 07:01:06;;;;;;;7.38;5.72;;;;;;;27.63;29.16;98820.06;5014626;28;20033;-80
2022/10/19 07:03:33;;;;;;;6.35;5.15;;;;;;;27.82;29.52;98829.69;5014366;28;20095;-81
2022/10/19 07:06:02;;;;;;;6.60;5.85;;;;;;;28.05;28.67;98835.94;5027809;28;20474;-80
2022/10/19 07:08:31;;;;;;;7.55;5.70;;;;;;;28.81;28.42;98843.97;5034041;28;20080;-81
2022/10/19 07:10:59;;;;;;;6.28;4.90;;;;;;;29.25;27.63;98834.56;5034352;28;20033;-81
2022/10/19 07:13:27;;;;;;;5.30;4.78;;;;;;;29.69;27.47;98847.69;5034094;28;20064;-81
2022/10/19 07:16:19;;;;;;;6.47;5.07;;;;;;;29.40;27.97;98845.00;5034095;28;20040;-81
2022/10/19 07:18:46;;;;;;;9.18;6.65;;;;;;;28.32;29.25;98841.28;5031792;28;20465;-81
2022/10/19 07:21:14;;;;;;;6.70;5.15;;;;;;;27.49;30.16;98848.63;5033504;28;20087;-81
2022/10/19 07:23:42;;;;;;;5.68;5.18;;;;;;;27.94;28.97;98840.22;5033330;28;20032;-81
2022/10/19 07:26:12;;;;;;;6.68;5.38;;;;;;;27.81;30.09;98833.72;5033849;28;20091;-81
2022/10/19 07:28:39;;;;;;;5.35;4.65;;;;;;;28.59;28.49;98843.81;5033213;28;20486;-81
2022/10/19 07:31:08;;;;;;;5.78;5.18;;;;;;;28.37;28.09;98851.25;5033874;28;20065;-81
2022/10/19 07:33:35;;;;;;;6.57;4.25;;;;;;;29.52;27.51;98842.63;5032497;28;20132;-81
2022/10/19 07:36:02;;;;;;;5.03;3.75;;;;;;;29.75;27.42;98845.09;5033381;28;20122;-81
2022/10/19 07:38:31;;;;;;;4.50;4.10;;;;;;;28.91;27.28;98825.91;5032838;28;20098;-81
2022/10/19 07:41:08;;;;;;;4.50;4.10;;;;;;;29.21;27.92;98831.88;5033289;28;20036;-81
2022/10/19 07:43:34;;;;;;;12.18;3.25;;;;;;;29.48;27.54;98839.91;5033669;28;20030;-81
2022/10/19 07:46:03;;;;;;;3.90;3.40;;;;;;;29.05;27.52;98837.59;5033837;28;20030;-81
2022/10/19 07:48:29;;;;;;;7.05;3.08;;;;;;;28.46;28.51;98838.06;5033125;28;20049;-81
2022/10/19 07:50:55;;;;;;;6.72;4.90;;;;;;;27.93;27.82;98850.75;5033009;28;20038;-81
2022/10/19 07:53:22;;;;;;;6.18;4.88;;;;;;;26.92;30.07;98843.44;5033746;28;20025;-80
2022/10/19 07:55:48;;;;;;;5.10;4.40;;;;;;;27.00;30.16;98850.47;5029694;28;20029;-81
2022/10/19 07:58:14;;;;;;;3.90;3.45;;;;;;;27.10;29.83;98843.81;5033339;28;20104;-81
2022/10/19 08:00:41;;;;;;;4.03;3.33;;;;;;;28.18;27.88;98841.66;5033023;28;20029;-81
2022/10/19 08:03:07;;;;;;;4.40;3.92;;;;;;;28.31;27.58;98841.72;5033279;28;20029;-81
2022/10/19 08:05:33;;;;;;;4.75;3.92;;;;;;;27.84;28.98;98832.84;5032900;28;20033;-81
2022/10/19 08:08:00;;;;;;;4.10;3.70;;;;;;;28.63;26.91;98831.16;5032750;28;20033;-81
2022/10/19 08:10:26;;;;;;;4.15;2.97;;;;;;;28.12;27.86;98834.97;5033040;28;20041;-81
2022/10/19 08:12:52;;;;;;;7.20;3.38;;;;;;;27.17;30.59;98834.41;5029562;28;20034;-80
2022/10/19 08:15:19;;;;;;;4.05;3.65;;;;;;;27.14;29.03;98835.31;5033234;28;20030;-81
2022/10/19 08:17:45;;;;;;;4.13;3.35;;;;;;;27.28;29.74;98832.94;5032090;28;20109;-81
2022/10/19 08:20:11;;;;;;;5.32;3.97;;;;;;;28.05;28.01;98838.75;5031768;28;20570;-81
2022/10/19 08:22:38;;;;;;;7.38;4.05;;;;;;;28.24;27.59;98831.41;5037395;28;20125;-81
2022/10/19 08:25:05;;;;;;;3.47;3.00;;;;;;;28.18;28.08;98823.91;5032208;28;20075;-81
2022/10/19 08:27:31;;;;;;;3.50;3.20;;;;;;;27.95;28.19;98822.06;5032971;28;20029;-81
2022/10/19 08:29:57;;;;;;;5.20;4.45;;;;;;;26.93;29.71;98818.88;5029202;28;20037;-81
2022/10/19 08:32:23;;;;;;;4.60;4.10;;;;;;;26.95;29.75;98825.66;5032967;28;20406;-81
2022/10/19 08:34:49;;;;;;;12.07;8.20;;;;;;;26.20;30.28;98819.91;5032981;28;20062;-81
2022/10/19 08:37:15;;;;;;;10.93;7.90;;;;;;;24.82;35.18;98832.50;5032767;28;20041;-81
2022/10/19 08:39:41;;;;;;;11.13;7.97;;;;;;;25.10;32.64;98837.75;5032698;28;20022;-81
2022/10/19 08:42:23;;;;;;;12.20;9.00;;;;;;;25.45;32.41;98835.66;5032832;28;20041;-81
2022/10/19 08:44:55;;;;;;;10.52;7.60;;;;;;;25.64;32.23;98851.81;5031326;28;20040;-81
2022/10/19 08:47:27;;;;;;;13.77;7.60;;;;;;;26.06;31.91;98840.66;5029252;28;20537;-81
2022/10/19 08:49:54;;;;;;;14.35;6.90;;;;;;;24.93;31.58;98829.53;5032641;28;20076;-81
2022/10/19 08:52:30;;;;;;;8.98;6.32;;;;;;;24.55;33.21;98837.25;5032728;28;20033;-81
2022/10/19 08:55:03;;;;;;;8.43;5.78;;;;;;;25.32;32.99;98838.25;5032783;28;20029;-80
2022/10/19 08:57:48;;;;;;;6.72;5.05;;;;;;;26.31;29.92;98826.13;5032848;28;20040;-81
2022/10/19 09:00:35;;;;;;;10.57;5.32;;;;;;;26.74;30.05;98837.34;5032627;28;20042;-81
2022/10/19 09:03:30;;;;;;;8.30;5.15;;;;;;;25.77;30.09;98838.72;5032709;28;20402;-81
2022/10/19 09:06:04;;;;;;;10.95;5.63;;;;;;;24.98;33.31;98855.16;5030895;28;20029;-81
2022/10/19 09:08:30;;;;;;;6.03;5.30;;;;;;;23.60;35.89;98846.53;5032723;28;20029;-81
2022/10/19 09:10:57;;;;;;;6.20;5.20;;;;;;;25.00;32.50;98823.81;5032661;28;20040;-80
2022/10/19 09:13:44;;;;;;;5.97;4.25;;;;;;;24.96;30.43;98832.31;5036358;28;20029;-80
2022/10/19 09:16:18;;;;;;;5.13;4.38;;;;;;;25.47;30.95;98845.25;5036330;28;20092;-80
2022/10/19 09:18:48;;;;;;;8.00;5.03;;;;;;;25.86;28.81;98839.78;5035861;28;20107;-80
2022/10/19 09:21:42;;;;;;;5.45;3.45;;;;;;;26.15;28.97;98834.47;5032844;28;20033;-81
2022/10/19 09:24:41;;;;;;;7.50;3.95;;;;;;;25.94;29.51;98838.44;5035865;28;20121;-80
2022/10/19 09:27:23;;;;;;;5.75;3.83;;;;;;;25.51;29.69;98837.53;5030505;28;20030;-80
2022/10/19 09:29:56;;;;;;;6.13;3.72;;;;;;;25.82;29.38;98829.81;5035845;28;20041;-80
2022/10/19 09:32:33;;;;;;;7.13;4.53;;;;;;;26.34;27.97;98828.09;5036054;28;20395;-80
2022/10/19 09:35:03;;;;;;;6.22;3.60;;;;;;;26.77;27.83;98830.84;5035922;28;20047;-80
2022/10/19 09:37:35;;;;;;;5.00;3.65;;;;;;;27.01;27.68;98828.75;5034423;28;20029;-80
2022/10/19 09:40:03;;;;;;;7.13;4.53;;;;;;;27.48;26.51;98827.28;5034570;28;20411;-81
2022/10/19 09:42:32;;;;;;;4.25;3.30;;;;;;;27.40;27.04;98832.28;5035531;28;20517;-80
2022/10/19 09:45:10;;;;;;;4.78;3.38;;;;;;;27.56;26.13;98837.16;5036070;28;20461;-80
2022/10/19 09:47:44;;;;;;;3.65;3.05;;;;;;;27.16;28.31;98835.66;5035493;28;20037;-81
2022/10/19 09:50:18;;;;;;;8.02;4.45;;;;;;;27.14;27.16;98832.50;5035637;28;20041;-80
2022/10/19 09:52:57;;;;;;;5.35;3.58;;;;;;;27.25;26.80;98841.50;5035695;28;20565;-80
2022/10/19 09:55:38;;;;;;;10.40;3.80;;;;;;;26.74;28.06;98842.97;5031760;28;20029;-80
2022/10/19 09:58:11;;;;;;;4.82;4.03;;;;;;;26.15;27.47;98844.94;5035454;28;20029;-80
2022/10/19 10:00:41;;;;;;;3.80;3.40;;;;;;;26.37;27.94;98846.91;5035457;28;20026;-80
2022/10/19 10:03:21;;;;;;;4.32;3.60;;;;;;;26.14;29.27;98846.94;5035477;28;20545;-80
2022/10/19 10:05:48;;;;;;;3.70;3.17;;;;;;;26.35;27.99;98838.09;5035439;28;20029;-81
2022/10/19 10:08:18;;;;;;;6.45;4.68;;;;;;;25.88;28.07;98836.56;5035229;28;20040;-80
2022/10/19 10:10:52;;;;;;;5.72;3.80;;;;;;;25.93;30.40;98839.66;5035064;28;20391;-80
2022/10/19 10:13:22;;;;;;;9.07;4.93;;;;;;;25.22;30.75;98839.97;5033764;28;20072;-80
2022/10/19 10:16:02;;;;;;;9.65;4.28;;;;;;;25.71;27.25;98801.88;5035253;28;20513;-80
2022/10/19 10:18:29;;;;;;;5.72;4.13;;;;;;;24.35;29.98;98847.47;5034993;28;20054;-81
2022/10/19 10:20:56;;;;;;;6.20;4.88;;;;;;;23.68;33.88;98850.91;5025746;28;20390;-80
2022/10/19 10:23:26;;;;;;;7.85;3.65;;;;;;;23.83;34.71;98835.53;5034648;28;20033;-80
2022/10/19 10:25:56;;;;;;;3.78;3.40;;;;;;;24.89;29.63;98832.41;5034999;28;20113;-80
2022/10/19 10:28:25;;;;;;;3.30;2.80;;;;;;;26.13;26.51;98830.50;5034209;28;20037;-80
2022/10/19 10:31:10;;;;;;;8.10;4.15;;;;;;;24.08;33.03;98832.53;5032488;28;20659;-81
2022/10/19 10:33:37;;;;;;;3.45;3.00;;;;;;;24.61;30.55;98825.13;5034950;28;20478;-81
2022/10/19 10:36:08;;;;;;;3.90;2.63;;;;;;;23.92;31.68;98824.66;5035044;28;20032;-81
2022/10/19 10:38:48;;;;;;;5.00;2.30;;;;;;;24.48;28.91;98832.47;5034788;28;20100;-81
2022/10/19 10:41:27;;;;;;;2.95;2.30;;;;;;;24.46;29.18;98837.72;5034627;28;20026;-81
2022/10/19 10:44:01;;;;;;;5.90;2.17;;;;;;;23.98;28.96;98834.19;5033252;28;20034;-81
2022/10/19 10:46:50;;;;;;;3.83;2.38;;;;;;;24.01;29.99;98839.00;5030976;28;20029;-81
2022/10/19 10:49:26;;;;;;;7.30;1.90;;;;;;;24.71;28.45;98834.63;5034518;28;20068;-80
2022/10/19 10:51:58;;;;;;;3.83;2.00;;;;;;;24.67;30.11;98842.28;5034492;28;20029;-80
2022/10/19 10:54:27;;;;;;;1.92;1.40;;;;;;;25.47;27.26;98847.25;5032233;28;20030;-80
2022/10/19 10:57:12;;;;;;;1.88;1.58;;;;;;;26.34;25.84;98838.56;5037670;28;20038;-81
2022/10/19 10:59:47;;;;;;;9.80;1.70;;;;;;;25.71;27.17;98846.88;5032149;28;20108;-81
2022/10/19 11:02:35;;;;;;;3.30;1.70;;;;;;;25.86;27.64;98850.22;5033847;28;20040;-81
2022/10/19 11:05:22;;;;;;;1.48;1.17;;;;;;;26.62;26.83;98838.78;5031133;28;20045;-81
2022/10/19 11:07:55;;;;;;;2.60;1.77;;;;;;;27.09;27.76;98827.38;5030643;28;20117;-81
2022/10/19 11:10:27;;;;;;;2.05;1.30;;;;;;;27.08;25.99;98832.19;5032693;28;20029;-81
2022/10/19 11:13:04;;;;;;;2.45;1.30;;;;;;;26.31;26.11;98822.50;5032812;28;20084;-80
2022/10/19 11:15:58;;;;;;;2.92;1.10;;;;;;;26.42;25.23;98823.91;5016814;28;20103;-80
2022/10/19 11:18:45;;;;;;;4.10;1.50;;;;;;;26.05;26.67;98822.16;5028510;28;20811;-80
2022/10/19 11:21:29;;;;;;;1.75;1.30;;;;;;;25.19;28.70;98832.38;5029852;28;20037;-80
2022/10/19 11:24:40;;;;;;;2.63;1.02;;;;;;;25.73;26.14;98827.56;5033361;28;20091;-80
2022/10/19 11:27:28;;;;;;;2.03;1.10;;;;;;;26.80;25.82;98827.19;5017194;28;20034;-82
2022/10/19 11:30:03;;;;;;;2.33;1.10;;;;;;;25.79;27.21;98834.28;5031250;28;20040;-80
2022/10/19 11:32:57;;;;;;;2.10;1.05;;;;;;;25.98;25.80;98835.56;5027974;28;20038;-81
2022/10/19 11:35:49;;;;;;;2.50;0.75;;;;;;;26.32;25.04;98821.31;5020570;28;20136;-81
2022/10/19 11:38:36;;;;;;;0.90;0.77;;;;;;;26.92;23.95;98825.72;5026689;28;20091;-81
2022/10/19 11:41:33;;;;;;;1.67;1.02;;;;;;;24.97;29.23;98835.94;5033043;28;20148;-81
2022/10/19 11:44:22;;;;;;;2.35;0.70;;;;;;;26.32;25.29;98824.13;5033394;28;20045;-82
2022/10/19 11:46:57;;;;;;;4.05;0.80;;;;;;;25.42;24.90;98820.38;5031808;28;20029;-82
2022/10/19 11:49:31;;;;;;;0.70;0.70;;;;;;;23.97;31.03;98838.19;5032681;28;20048;-81
2022/10/19 11:52:33;;;;;;;3.22;0.80;;;;;;;25.04;25.26;98838.63;5026080;28;20072;-81
2022/10/19 11:55:20;;;;;;;2.78;0.90;;;;;;;24.83;27.43;98834.09;5025600;28;20091;-82